Погода Ломена 2 недели

Ломе, Того

28 февраля-12 марта
  • 28февраля
    Сегодня
    +27°
    +33°
    Облачно с прояснениями
    ВремяПогодаТемператураВлажностьДавлениеВетер, м/сВероятность осадков
    00:00Практически безоблачно+29°C85 %752 мм2.2 м/с2 %
    03:00Ясно и безоблачно+28°C86 %751 мм4.1 м/с2 %
    06:00Практически безоблачно+27°C90 %752 мм1.8 м/с1 %
    09:00Ясно и безоблачно+31°C74 %753 мм3.6 м/с4 %
    12:00Ясно и безоблачно+33°C65 %752 мм4.5 м/с2 %
    15:00Облачно с прояснениями+32°C70 %749 мм5.3 м/с10 %
    18:00Небольшая облачность+30°C83 %750 мм4.2 м/с18 %
    21:00Ясно и безоблачно+29°C88 %752 мм3.7 м/с2 %
  • 29февраля
    Четверг
    +27°
    +33°
    Практически безоблачно
    ВремяПогодаТемператураВлажностьДавлениеВетер, м/сВероятность осадков
    00:00Ясно и безоблачно+29°C90 %752 мм2.8 м/с2 %
    03:00Ясно и безоблачно+28°C90 %750 мм4.8 м/с1 %
    06:00Ясно и безоблачно+27°C88 %751 мм2.4 м/с2 %
    09:00Ясно и безоблачно+31°C73 %753 мм3.4 м/с2 %
    12:00Практически безоблачно+33°C68 %751 мм5.1 м/с4 %
    15:00Практически безоблачно+32°C70 %749 мм6.4 м/с20 %
    18:00Облачно с прояснениями+30°C85 %750 мм4.1 м/с14 %
    21:00Облачно с прояснениями+29°C90 %752 мм4.2 м/с3 %
  • 01марта
    Пятница
    +26°
    +33°
    Облачно с прояснениями
    ВремяПогодаТемператураВлажностьДавлениеВетер, м/сВероятность осадков
    00:00Облачно с прояснениями+29°C89 %752 мм3.3 м/с4 %
    03:00Облачно с прояснениями+28°C87 %750 мм5.2 м/с7 %
    06:00Практически безоблачно+27°C90 %751 мм2.5 м/с7 %
    09:00Облачно с прояснениями+30°C76 %753 мм5.1 м/с6 %
    12:00Облачно с прояснениями+32°C66 %751 мм4.8 м/с22 %
    15:00Облачно с прояснениями+31°C73 %750 мм6.5 м/с45 %
    18:00Практически безоблачно+30°C83 %750 мм3.9 м/с16 %
    21:00Облачно с прояснениями+29°C88 %752 мм4.1 м/с4 %
  • 02марта
    Суббота
    +26°
    +33°
    Облачно с прояснениями
    ВремяПогодаТемператураВлажностьДавлениеВетер, м/сВероятность осадков
    00:00Облачно с прояснениями+28°C89 %753 мм2.7 м/с4 %
    03:00Облачно с прояснениями+28°C90 %751 мм4.7 м/с6 %
    06:00Облачно с прояснениями+27°C91 %752 мм2.1 м/с7 %
    09:00Облачно с прояснениями+30°C76 %754 мм2.8 м/с5 %
    12:00Облачно с прояснениями+32°C70 %752 мм4.5 м/с28 %
    15:00Облачно с прояснениями+31°C74 %750 мм5.4 м/с50 %
    18:00Облачно с прояснениями+29°C85 %751 мм3.6 м/с10 %
    21:00Облачно с прояснениями+29°C90 %753 мм2.5 м/с2 %
  • 03марта
    Воскресенье
    +26°
    +33°
    Ясно и безоблачно
    ВремяПогодаТемператураВлажностьДавлениеВетер, м/сВероятность осадков
    00:00Практически безоблачно+28°C92 %753 мм1.8 м/с3 %
    03:00Облачно с прояснениями+28°C92 %752 мм3.5 м/с2 %
    06:00Небольшая облачность+27°C89 %753 мм2.1 м/с2 %
    09:00Облачно с прояснениями+30°C76 %754 мм3.6 м/с4 %
    12:00Ясно и безоблачно+32°C72 %752 мм4.3 м/с11 %
    15:00Ясно и безоблачно+32°C73 %751 мм5.3 м/с36 %
    18:00Ясно и безоблачно+29°C87 %751 мм3.5 м/с4 %
    21:00Ясно и безоблачно+29°C91 %753 мм3.4 м/с2 %
Мы используем cookies
Соглашаюсь